Terminal Aerodrome Forecast
Issued by NWS

Home | Current Version | Previous Version | Text Only | Print | Product List | Glossary On
Versions: 1 2 3 4 5 6 7 8 9 10 11 12 13 14 15 16 17 18 19 20 21
000
FTUS42 KTAE 011503 AAB
TAFECP
TAF AMD
KECP 011503Z 0115/0212 13010KT P6SM BKN018
     FM011600 18010KT P6SM SCT025 SCT250
      TEMPO 0116/0117 BKN025
     FM020000 18003KT P6SM SCT250=

USA.gov is the U.S. government's official web portal to all federal, state and local government web resources and services.